Time;durP1;ratioP1;P1;durP2;ratioP2;P2;SDS_P1;SDS_P2;PMS_P1;PMS_P2;Temp;Humidity;BMP_temperature;BMP_pressure;BME280_temperature;BME280_humidity;BME280_pressure;Samples;Min_cycle;Max_cycle;Signal;HPM_P1;HPM_P2
2023/07/20 00:00:27;;;;;;;0.00;0.00;;;19.90;70.90;;;;;;5050266;28;20196;-63
2023/07/20 00:03:09;;;;;;;0.00;0.00;;;19.80;71.20;;;;;;5050429;28;20583;-63
2023/07/20 00:05:34;;;;;;;0.00;0.00;;;19.80;71.20;;;;;;5050439;28;20181;-63
2023/07/20 00:08:00;;;;;;;0.00;0.00;;;19.80;71.30;;;;;;5050482;28;20184;-63
2023/07/20 00:10:25;;;;;;;0.00;0.00;;;19.80;71.30;;;;;;5050447;28;20587;-63
2023/07/20 00:12:51;;;;;;;0.00;0.00;;;19.80;71.80;;;;;;5048489;28;20216;-62
2023/07/20 00:15:17;;;;;;;0.00;0.00;;;19.70;71.90;;;;;;5050000;28;20184;-62
2023/07/20 00:17:44;;;;;;;0.00;0.00;;;19.70;72.00;;;;;;5049545;28;20548;-63
2023/07/20 00:20:11;;;;;;;0.00;0.00;;;19.70;73.00;;;;;;5050272;28;20724;-63
2023/07/20 00:22:36;;;;;;;0.00;0.00;;;19.60;72.00;;;;;;5050274;28;20284;-63
2023/07/20 00:25:02;;;;;;;0.00;0.00;;;19.60;72.30;;;;;;5050559;28;20177;-62
2023/07/20 00:27:28;;;;;;;0.00;0.00;;;19.50;72.20;;;;;;5049616;28;20649;-63
2023/07/20 00:29:53;;;;;;;0.00;0.00;;;19.50;72.70;;;;;;5049617;28;20228;-62
2023/07/20 00:32:19;;;;;;;0.00;0.00;;;19.50;72.80;;;;;;5049799;28;20189;-62
2023/07/20 00:34:44;;;;;;;0.00;0.00;;;19.40;72.80;;;;;;5050511;28;20243;-62
2023/07/20 00:37:10;;;;;;;0.00;0.00;;;19.40;73.20;;;;;;5050056;28;20166;-62
2023/07/20 00:39:35;;;;;;;0.00;0.00;;;19.30;73.10;;;;;;5049867;28;20217;-62
2023/07/20 00:42:01;;;;;;;0.00;0.00;;;19.30;73.30;;;;;;5050159;28;20198;-62
2023/07/20 00:44:26;;;;;;;0.15;0.15;;;19.30;73.40;;;;;;5049308;28;20280;-62
2023/07/20 00:46:52;;;;;;;0.00;0.00;;;19.20;73.70;;;;;;5048835;28;20544;-63
2023/07/20 00:49:20;;;;;;;0.00;0.00;;;19.20;73.90;;;;;;5050132;28;20213;-62
2023/07/20 00:51:47;;;;;;;0.00;0.00;;;19.20;73.70;;;;;;5054143;28;20185;-62
2023/07/20 00:54:12;;;;;;;0.00;0.00;;;19.10;74.20;;;;;;5046372;28;20304;-62
2023/07/20 00:56:39;;;;;;;0.00;0.00;;;19.00;74.40;;;;;;5054328;28;20264;-62
2023/07/20 00:59:05;;;;;;;0.00;0.00;;;19.00;74.70;;;;;;5051929;28;20690;-62
2023/07/20 01:01:31;;;;;;;0.00;0.00;;;19.00;74.90;;;;;;5053577;28;20186;-62
2023/07/20 01:03:56;;;;;;;0.00;0.00;;;19.00;75.10;;;;;;5053281;28;20181;-62
2023/07/20 01:06:36;;;;;;;0.00;0.00;;;18.90;75.60;;;;;;5053834;28;20181;-62
2023/07/20 01:09:13;;;;;;;0.00;0.00;;;18.90;75.60;;;;;;5053913;28;20270;-62
2023/07/20 01:11:46;;;;;;;0.00;0.00;;;18.90;75.70;;;;;;5053704;28;20188;-62
2023/07/20 01:14:13;;;;;;;0.00;0.00;;;18.80;75.80;;;;;;5053180;28;20240;-62
2023/07/20 01:16:38;;;;;;;0.00;0.00;;;18.80;76.20;;;;;;5054131;28;20247;-62
2023/07/20 01:19:05;;;;;;;0.00;0.00;;;18.80;76.40;;;;;;5053526;28;20579;-62
2023/07/20 01:21:53;;;;;;;0.00;0.00;;;18.70;76.70;;;;;;5053764;28;20645;-62
2023/07/20 01:24:40;;;;;;;0.00;0.00;;;18.70;77.00;;;;;;5050461;28;20189;-63
2023/07/20 01:27:19;;;;;;;0.00;0.00;;;18.60;77.20;;;;;;5053895;28;20181;-63
2023/07/20 01:30:04;;;;;;;0.00;0.00;;;18.50;77.40;;;;;;5049422;28;20221;-63
2023/07/20 01:32:31;;;;;;;0.00;0.00;;;18.50;77.80;;;;;;5043912;28;20826;-63
2023/07/20 01:34:58;;;;;;;0.00;0.00;;;18.40;78.20;;;;;;5054137;28;20292;-63
2023/07/20 01:37:27;;;;;;;0.00;0.00;;;18.40;78.30;;;;;;5053870;28;20247;-62
2023/07/20 01:39:57;;;;;;;0.00;0.00;;;18.30;79.50;;;;;;5053815;28;20281;-63
2023/07/20 01:42:24;;;;;;;0.00;0.00;;;18.30;79.10;;;;;;5053629;28;20216;-62
2023/07/20 01:44:53;;;;;;;0.55;0.38;;;18.30;79.50;;;;;;5053809;28;20649;-63
2023/07/20 01:47:19;;;;;;;0.03;0.03;;;18.20;79.30;;;;;;5053809;28;20182;-63
2023/07/20 01:49:44;;;;;;;0.00;0.00;;;18.20;79.80;;;;;;5053765;28;20232;-62
2023/07/20 01:52:10;;;;;;;0.00;0.00;;;18.20;80.30;;;;;;5053603;28;20183;-63
2023/07/20 01:54:36;;;;;;;0.00;0.00;;;18.20;80.20;;;;;;5053539;28;20758;-63
2023/07/20 01:57:02;;;;;;;0.00;0.00;;;18.20;80.00;;;;;;5053527;28;20174;-63
2023/07/20 01:59:27;;;;;;;0.00;0.00;;;18.20;79.80;;;;;;5053228;28;20552;-62
2023/07/20 02:01:53;;;;;;;0.00;0.00;;;18.20;80.00;;;;;;5051764;28;20169;-63
2023/07/20 02:04:18;;;;;;;0.00;0.00;;;18.20;80.90;;;;;;5053274;28;20173;-63
2023/07/20 02:06:44;;;;;;;0.00;0.00;;;18.20;80.20;;;;;;5053163;28;20173;-63
2023/07/20 02:09:09;;;;;;;0.00;0.00;;;18.20;80.30;;;;;;5052559;28;20265;-63
2023/07/20 02:11:35;;;;;;;0.00;0.00;;;18.20;80.70;;;;;;5052864;28;20177;-63
2023/07/20 02:14:00;;;;;;;0.00;0.00;;;18.20;81.00;;;;;;5052528;28;20212;-63
2023/07/20 02:16:26;;;;;;;0.28;0.10;;;18.10;80.90;;;;;;5052733;28;20170;-63
2023/07/20 02:18:52;;;;;;;0.00;0.00;;;18.20;81.40;;;;;;5052347;28;20181;-64
2023/07/20 02:21:18;;;;;;;0.00;0.00;;;18.10;81.30;;;;;;5052477;28;20204;-63
2023/07/20 02:23:43;;;;;;;0.00;0.00;;;18.10;81.50;;;;;;5052363;28;20641;-63
2023/07/20 02:26:09;;;;;;;0.00;0.00;;;18.20;81.60;;;;;;5051899;28;20186;-63
2023/07/20 02:28:34;;;;;;;0.00;0.00;;;18.10;81.50;;;;;;5049654;28;20396;-63
2023/07/20 02:31:00;;;;;;;0.00;0.00;;;18.20;81.80;;;;;;5052524;28;20186;-64
2023/07/20 02:33:26;;;;;;;0.00;0.00;;;18.10;82.10;;;;;;5051468;28;20217;-63
2023/07/20 02:35:52;;;;;;;0.00;0.00;;;18.10;82.20;;;;;;5052162;28;20177;-63
2023/07/20 02:38:17;;;;;;;0.00;0.00;;;18.10;82.50;;;;;;5051607;28;20185;-63
2023/07/20 02:40:43;;;;;;;0.00;0.00;;;18.10;82.70;;;;;;5052154;28;20201;-63
2023/07/20 02:43:09;;;;;;;0.00;0.00;;;18.00;82.90;;;;;;5051446;28;20186;-64
2023/07/20 02:45:35;;;;;;;0.00;0.00;;;18.00;83.30;;;;;;5051981;28;20192;-63
2023/07/20 02:48:00;;;;;;;0.00;0.00;;;18.00;84.30;;;;;;5052580;28;20718;-64
2023/07/20 02:50:26;;;;;;;0.00;0.00;;;18.00;85.10;;;;;;5051836;28;20178;-63
2023/07/20 02:52:52;;;;;;;0.00;0.00;;;17.90;85.50;;;;;;5052014;28;20304;-63
2023/07/20 02:55:17;;;;;;;0.00;0.00;;;17.90;85.80;;;;;;5052087;28;20181;-63
2023/07/20 02:57:43;;;;;;;0.00;0.00;;;17.80;86.30;;;;;;5051973;28;20268;-63
2023/07/20 03:00:09;;;;;;;0.00;0.00;;;17.70;86.80;;;;;;5051941;28;20269;-63
2023/07/20 03:02:34;;;;;;;0.00;0.00;;;17.70;87.80;;;;;;5051630;28;20181;-63
2023/07/20 03:05:01;;;;;;;0.00;0.00;;;17.70;88.30;;;;;;5051449;28;20173;-63
2023/07/20 03:07:28;;;;;;;0.00;0.00;;;17.60;89.00;;;;;;5051154;28;20633;-63
2023/07/20 03:09:54;;;;;;;0.00;0.00;;;17.60;89.70;;;;;;5051815;28;20303;-63
2023/07/20 03:12:20;;;;;;;0.00;0.00;;;17.60;90.10;;;;;;5051065;28;20180;-63
2023/07/20 03:14:46;;;;;;;0.00;0.00;;;17.60;90.40;;;;;;5051834;28;20178;-63
2023/07/20 03:17:12;;;;;;;0.00;0.00;;;17.60;90.70;;;;;;5051601;28;20263;-63
2023/07/20 03:19:37;;;;;;;0.00;0.00;;;17.60;90.80;;;;;;5051379;28;20193;-63
2023/07/20 03:22:03;;;;;;;0.00;0.00;;;17.60;91.10;;;;;;5050417;28;20235;-63
2023/07/20 03:24:28;;;;;;;0.00;0.00;;;17.60;91.30;;;;;;5050867;28;20252;-63
2023/07/20 03:26:54;;;;;;;0.00;0.00;;;17.60;91.30;;;;;;5051774;28;20692;-63
2023/07/20 03:29:19;;;;;;;0.00;0.00;;;17.60;91.70;;;;;;5051244;28;20312;-63
2023/07/20 03:31:45;;;;;;;0.00;0.00;;;17.60;91.90;;;;;;5051041;28;20189;-62
2023/07/20 03:34:10;;;;;;;0.00;0.00;;;17.60;92.10;;;;;;5068342;28;20273;-63
2023/07/20 03:36:36;;;;;;;0.00;0.00;;;17.50;92.20;;;;;;5070425;28;20183;-63
2023/07/20 03:39:03;;;;;;;0.00;0.00;;;17.50;92.40;;;;;;5071696;28;20644;-62
2023/07/20 03:41:28;;;;;;;0.00;0.00;;;17.50;92.60;;;;;;5058792;28;20201;-62
2023/07/20 03:43:54;;;;;;;0.00;0.00;;;17.50;93.00;;;;;;5050839;28;20637;-73
2023/07/20 03:46:19;;;;;;;0.00;0.00;;;17.50;93.30;;;;;;5050825;28;20173;-70
2023/07/20 03:48:45;;;;;;;0.00;0.00;;;17.50;93.50;;;;;;5051005;28;20181;-72
2023/07/20 03:51:10;;;;;;;0.00;0.00;;;17.50;93.50;;;;;;5050702;28;20568;-70
2023/07/20 03:53:36;;;;;;;0.00;0.00;;;17.50;93.60;;;;;;5051243;28;20213;-71
2023/07/20 03:56:01;;;;;;;0.00;0.00;;;17.50;93.70;;;;;;5049753;28;20177;-72
2023/07/20 03:58:27;;;;;;;0.00;0.00;;;17.50;93.80;;;;;;5050692;28;20544;-68
2023/07/20 04:00:53;;;;;;;0.00;0.00;;;17.60;94.10;;;;;;5049340;28;20228;-72
2023/07/20 04:03:19;;;;;;;0.00;0.00;;;17.60;94.20;;;;;;5050743;28;20264;-71
2023/07/20 04:05:45;;;;;;;0.00;0.00;;;17.60;94.20;;;;;;5050419;28;20174;-71
2023/07/20 04:08:11;;;;;;;0.00;0.00;;;17.60;94.10;;;;;;5050593;28;20185;-74
2023/07/20 04:10:37;;;;;;;0.15;0.15;;;17.60;94.20;;;;;;5050364;28;20184;-75
2023/07/20 04:13:03;;;;;;;0.00;0.00;;;17.70;94.20;;;;;;5049976;28;20208;-72
2023/07/20 04:15:29;;;;;;;0.00;0.00;;;17.70;94.20;;;;;;5047244;28;20174;-72
2023/07/20 04:17:56;;;;;;;0.00;0.00;;;17.80;94.40;;;;;;5049272;28;20189;-71
2023/07/20 04:20:22;;;;;;;0.00;0.00;;;17.80;94.50;;;;;;5050564;28;20276;-71
2023/07/20 04:22:47;;;;;;;0.00;0.00;;;17.80;94.80;;;;;;5050776;28;20196;-71
2023/07/20 04:25:13;;;;;;;0.00;0.00;;;17.90;94.70;;;;;;5050749;28;20185;-72
2023/07/20 04:27:38;;;;;;;0.00;0.00;;;17.90;94.80;;;;;;5050960;28;20180;-73
2023/07/20 04:30:07;;;;;;;0.10;0.10;;;17.90;94.70;;;;;;5050426;28;20229;-72
2023/07/20 04:32:33;;;;;;;0.00;0.00;;;17.90;94.80;;;;;;5050665;28;20277;-72
2023/07/20 04:34:59;;;;;;;0.00;0.00;;;18.00;94.90;;;;;;5051336;28;20255;-72
2023/07/20 04:37:25;;;;;;;0.00;0.00;;;18.00;94.60;;;;;;5032882;28;20177;-72
2023/07/20 04:39:51;;;;;;;0.00;0.00;;;18.10;94.70;;;;;;5051243;28;20173;-72
2023/07/20 04:42:16;;;;;;;0.00;0.00;;;18.10;94.70;;;;;;5049746;28;20180;-72
2023/07/20 04:44:42;;;;;;;0.00;0.00;;;18.20;94.60;;;;;;5050509;28;20180;-72
2023/07/20 04:47:08;;;;;;;0.00;0.00;;;18.40;94.70;;;;;;5050774;28;20181;-72
2023/07/20 04:49:34;;;;;;;0.00;0.00;;;18.70;94.60;;;;;;5050561;28;20181;-71
2023/07/20 04:51:59;;;;;;;0.00;0.00;;;19.00;93.90;;;;;;5050567;28;20574;-72
2023/07/20 04:54:26;;;;;;;0.00;0.00;;;19.40;93.50;;;;;;5050285;28;20221;-72
2023/07/20 04:56:52;;;;;;;0.00;0.00;;;19.90;93.10;;;;;;5050473;28;20178;-73
2023/07/20 04:59:18;;;;;;;0.00;0.00;;;20.30;92.10;;;;;;5050106;28;20179;-73
2023/07/20 05:01:44;;;;;;;0.00;0.00;;;20.80;91.40;;;;;;5050184;28;20173;-73
2023/07/20 05:04:09;;;;;;;0.00;0.00;;;21.30;90.60;;;;;;5048697;28;20216;-72
2023/07/20 05:06:35;;;;;;;0.00;0.00;;;21.70;88.80;;;;;;5050445;28;20235;-72
2023/07/20 05:09:00;;;;;;;0.00;0.00;;;21.90;86.80;;;;;;5050212;28;20181;-73
2023/07/20 05:11:26;;;;;;;0.00;0.00;;;22.20;85.60;;;;;;5050355;28;20173;-73
2023/07/20 05:13:51;;;;;;;0.00;0.00;;;22.40;85.00;;;;;;5049045;28;20296;-73
2023/07/20 05:16:17;;;;;;;0.00;0.00;;;22.40;84.20;;;;;;5048940;28;20582;-72
2023/07/20 05:18:42;;;;;;;0.00;0.00;;;22.30;83.80;;;;;;5048895;28;20264;-73
2023/07/20 05:21:08;;;;;;;0.00;0.00;;;22.40;83.70;;;;;;5050298;28;20209;-71
2023/07/20 05:23:34;;;;;;;0.00;0.00;;;22.60;83.20;;;;;;5050115;28;20181;-72
2023/07/20 05:25:59;;;;;;;0.00;0.00;;;22.70;82.70;;;;;;5050300;28;20201;-73
2023/07/20 05:28:29;;;;;;;0.00;0.00;;;22.60;82.10;;;;;;5049902;28;20233;-73
2023/07/20 05:30:55;;;;;;;0.00;0.00;;;22.30;82.50;;;;;;5050205;28;20197;-73
2023/07/20 05:33:21;;;;;;;0.00;0.00;;;22.00;82.70;;;;;;5049888;28;20228;-73
2023/07/20 05:35:47;;;;;;;0.00;0.00;;;21.60;83.50;;;;;;5051100;28;20197;-73
2023/07/20 05:38:13;;;;;;;0.00;0.00;;;21.30;84.50;;;;;;5053664;28;20615;-73
2023/07/20 05:40:41;;;;;;;0.63;0.63;;;21.30;85.50;;;;;;5053696;28;20180;-73
2023/07/20 05:43:07;;;;;;;0.00;0.00;;;21.40;85.00;;;;;;5053691;28;20608;-73
2023/07/20 05:45:32;;;;;;;0.00;0.00;;;21.80;85.90;;;;;;5053579;28;20846;-73
2023/07/20 05:47:58;;;;;;;0.00;0.00;;;22.20;84.70;;;;;;5053636;28;20210;-73
2023/07/20 05:50:23;;;;;;;0.00;0.00;;;22.40;83.10;;;;;;5053326;28;20184;-73
2023/07/20 05:52:52;;;;;;;0.00;0.00;;;22.70;83.20;;;;;;5052050;28;20533;-73
2023/07/20 05:55:17;;;;;;;0.00;0.00;;;23.10;82.10;;;;;;5053271;28;20192;-72
2023/07/20 05:57:43;;;;;;;0.00;0.00;;;23.60;81.20;;;;;;5053301;28;20174;-74
2023/07/20 06:00:09;;;;;;;0.00;0.00;;;23.80;78.70;;;;;;5053183;28;20181;-74
2023/07/20 06:02:35;;;;;;;0.00;0.00;;;23.50;78.40;;;;;;5053125;28;20180;-73
2023/07/20 06:05:01;;;;;;;0.00;0.00;;;23.80;79.30;;;;;;5053161;28;20173;-73
2023/07/20 06:07:26;;;;;;;0.00;0.00;;;24.20;77.70;;;;;;5053008;28;20256;-73
2023/07/20 06:09:52;;;;;;;0.00;0.00;;;24.40;76.50;;;;;;5053246;28;20246;-72
2023/07/20 06:12:18;;;;;;;0.00;0.00;;;24.90;75.50;;;;;;5053131;28;20192;-73
2023/07/20 06:14:43;;;;;;;0.00;0.00;;;25.10;74.20;;;;;;5053328;28;20213;-74
2023/07/20 06:17:09;;;;;;;0.00;0.00;;;25.30;73.30;;;;;;5053362;28;20193;-73
2023/07/20 06:19:35;;;;;;;0.00;0.00;;;25.70;72.60;;;;;;5053311;28;20178;-74
2023/07/20 06:22:02;;;;;;;0.00;0.00;;;26.10;71.00;;;;;;5053286;28;20632;-73
2023/07/20 06:24:27;;;;;;;0.00;0.00;;;26.30;69.70;;;;;;5053028;28;20185;-72
2023/07/20 06:26:53;;;;;;;0.00;0.00;;;25.70;68.80;;;;;;5053149;28;20199;-73
2023/07/20 06:29:19;;;;;;;0.30;0.30;;;25.30;70.90;;;;;;5052924;28;20221;-73
2023/07/20 06:31:44;;;;;;;0.00;0.00;;;25.50;71.70;;;;;;5052986;28;20644;-71
2023/07/20 06:34:10;;;;;;;0.10;0.10;;;26.10;70.70;;;;;;5052924;28;20217;-71
2023/07/20 06:36:35;;;;;;;0.00;0.00;;;26.70;68.40;;;;;;5053009;28;20181;-72
2023/07/20 06:39:02;;;;;;;0.00;0.00;;;27.00;67.50;;;;;;5052921;28;20185;-72
2023/07/20 06:41:28;;;;;;;0.00;0.00;;;27.10;65.80;;;;;;5052931;28;20227;-72
2023/07/20 06:43:57;;;;;;;0.00;0.00;;;27.00;65.60;;;;;;5052720;28;20267;-72
2023/07/20 06:46:26;;;;;;;0.00;0.00;;;26.70;66.10;;;;;;5052344;28;20174;-72
2023/07/20 06:48:51;;;;;;;0.00;0.00;;;26.90;65.40;;;;;;5051879;28;20174;-73
2023/07/20 06:51:17;;;;;;;0.00;0.00;;;26.90;65.70;;;;;;5052579;28;20188;-72
2023/07/20 06:53:43;;;;;;;0.00;0.00;;;26.80;65.80;;;;;;5052495;28;20248;-72
2023/07/20 06:56:09;;;;;;;0.00;0.00;;;27.10;65.80;;;;;;5052580;28;20257;-72
2023/07/20 06:58:34;;;;;;;0.90;0.17;;;28.10;64.30;;;;;;5052488;28;20173;-72
2023/07/20 07:01:05;;;;;;;0.00;0.00;;;28.60;62.20;;;;;;5052559;28;20244;-73
2023/07/20 07:03:30;;;;;;;0.00;0.00;;;29.20;60.80;;;;;;5052435;28;20620;-72
2023/07/20 07:05:56;;;;;;;0.00;0.00;;;29.70;58.90;;;;;;5051198;28;20252;-72
2023/07/20 07:08:21;;;;;;;0.00;0.00;;;29.50;58.50;;;;;;5052249;28;20185;-72
2023/07/20 07:10:47;;;;;;;0.00;0.00;;;29.90;58.80;;;;;;5052384;28;20201;-72
2023/07/20 07:13:13;;;;;;;0.00;0.00;;;30.50;57.40;;;;;;5052143;28;20243;-72
2023/07/20 07:15:38;;;;;;;0.00;0.00;;;30.80;56.60;;;;;;5052254;28;20181;-72
2023/07/20 07:18:04;;;;;;;0.00;0.00;;;30.50;55.30;;;;;;5052136;28;20535;-72
2023/07/20 07:20:29;;;;;;;0.00;0.00;;;29.80;55.10;;;;;;5052117;28;20235;-72
2023/07/20 07:22:55;;;;;;;0.00;0.00;;;30.00;56.90;;;;;;5050829;28;20867;-72
2023/07/20 07:25:21;;;;;;;0.00;0.00;;;30.10;55.80;;;;;;5051984;28;20169;-73
2023/07/20 07:27:46;;;;;;;0.00;0.00;;;30.00;55.60;;;;;;5050514;28;20189;-72
2023/07/20 07:30:12;;;;;;;0.13;0.13;;;29.70;55.90;;;;;;5034173;28;20189;-73
2023/07/20 07:32:38;;;;;;;0.00;0.00;;;30.00;56.00;;;;;;5051923;28;20169;-73
2023/07/20 07:35:04;;;;;;;0.00;0.00;;;30.40;55.90;;;;;;5050515;28;20192;-73
2023/07/20 07:37:30;;;;;;;0.00;0.00;;;31.10;56.00;;;;;;5051828;28;20204;-73
2023/07/20 07:39:55;;;;;;;0.00;0.00;;;31.70;53.90;;;;;;5051788;28;20648;-73
2023/07/20 07:42:21;;;;;;;0.00;0.00;;;31.00;52.30;;;;;;5051559;28;20177;-73
2023/07/20 07:44:46;;;;;;;0.00;0.00;;;30.40;53.60;;;;;;5051639;28;20560;-73
2023/07/20 07:47:12;;;;;;;0.00;0.00;;;30.80;54.80;;;;;;5051667;28;20637;-72
2023/07/20 07:49:37;;;;;;;0.00;0.00;;;31.20;54.50;;;;;;5050299;28;20208;-72
2023/07/20 07:52:03;;;;;;;0.00;0.00;;;31.50;54.10;;;;;;5051482;28;20231;-72
2023/07/20 07:54:29;;;;;;;0.00;0.00;;;32.00;52.70;;;;;;5051413;28;20212;-73
2023/07/20 07:56:55;;;;;;;0.00;0.00;;;32.20;50.90;;;;;;5051585;28;20184;-73
2023/07/20 07:59:20;;;;;;;0.00;0.00;;;31.70;50.50;;;;;;5051010;28;20707;-73
2023/07/20 08:01:46;;;;;;;0.00;0.00;;;31.10;50.90;;;;;;5051451;28;20170;-72
2023/07/20 08:04:11;;;;;;;0.00;0.00;;;29.80;52.40;;;;;;5050212;28;20180;-72
2023/07/20 08:06:37;;;;;;;0.00;0.00;;;29.30;54.70;;;;;;5051334;28;20523;-74
2023/07/20 08:09:03;;;;;;;0.00;0.00;;;29.50;55.10;;;;;;5051236;28;20189;-73
2023/07/20 08:11:30;;;;;;;0.00;0.00;;;29.50;54.50;;;;;;5051219;28;20204;-73
2023/07/20 08:13:56;;;;;;;0.05;0.05;;;29.70;54.90;;;;;;5051259;28;20212;-72
2023/07/20 08:16:22;;;;;;;0.93;0.08;;;30.00;53.80;;;;;;5051071;28;20528;-73
2023/07/20 08:18:47;;;;;;;0.00;0.00;;;30.20;54.80;;;;;;5051115;28;20702;-73
2023/07/20 08:21:13;;;;;;;0.00;0.00;;;30.70;54.20;;;;;;5051198;28;20173;-72
2023/07/20 08:23:38;;;;;;;0.00;0.00;;;31.40;53.50;;;;;;5051084;28;20234;-72
2023/07/20 08:26:04;;;;;;;0.00;0.00;;;32.00;51.50;;;;;;5051009;28;20177;-72
2023/07/20 08:28:29;;;;;;;0.00;0.00;;;31.60;50.50;;;;;;5050835;28;20240;-73
2023/07/20 08:30:55;;;;;;;0.00;0.00;;;31.00;51.10;;;;;;5051159;28;20173;-73
2023/07/20 08:33:20;;;;;;;0.00;0.00;;;30.60;52.00;;;;;;5051030;28;20298;-72
2023/07/20 08:35:47;;;;;;;0.20;0.20;;;30.40;52.80;;;;;;5050922;28;20704;-72
2023/07/20 08:38:13;;;;;;;0.00;0.00;;;30.50;52.80;;;;;;5051103;28;20252;-72
2023/07/20 08:40:40;;;;;;;0.30;0.30;;;30.50;52.30;;;;;;5050949;28;20210;-72
2023/07/20 08:43:06;;;;;;;0.10;0.00;;;30.40;52.40;;;;;;5050676;28;20679;-72
2023/07/20 08:45:38;;;;;;;0.00;0.00;;;30.00;53.90;;;;;;5050951;28;20205;-73
2023/07/20 08:48:05;;;;;;;0.00;0.00;;;29.60;53.20;;;;;;5050848;28;20235;-72
2023/07/20 08:50:32;;;;;;;0.00;0.00;;;29.70;54.90;;;;;;5050878;28;20179;-72
2023/07/20 08:52:58;;;;;;;0.00;0.00;;;29.60;52.70;;;;;;5050889;28;20205;-73
2023/07/20 08:55:26;;;;;;;0.00;0.00;;;29.30;53.00;;;;;;5050739;28;20178;-72
2023/07/20 08:57:54;;;;;;;0.00;0.00;;;28.80;53.10;;;;;;5050979;28;20165;-72
2023/07/20 09:00:21;;;;;;;0.00;0.00;;;28.60;54.20;;;;;;5050752;28;20212;-72
2023/07/20 09:02:53;;;;;;;0.00;0.00;;;28.40;54.60;;;;;;5050734;28;20170;-72
2023/07/20 09:05:19;;;;;;;0.00;0.00;;;28.60;55.50;;;;;;5050731;28;20202;-71
2023/07/20 09:07:45;;;;;;;0.00;0.00;;;28.80;55.10;;;;;;5050615;28;20526;-73
2023/07/20 09:10:12;;;;;;;0.00;0.00;;;29.30;53.80;;;;;;5050860;28;20196;-71
2023/07/20 09:12:39;;;;;;;0.00;0.00;;;29.60;53.50;;;;;;5054581;28;20170;-72
2023/07/20 09:15:05;;;;;;;0.00;0.00;;;29.60;52.40;;;;;;5054459;28;20192;-72
2023/07/20 09:17:31;;;;;;;0.00;0.00;;;29.30;52.30;;;;;;5054417;28;20169;-72
2023/07/20 09:19:57;;;;;;;0.00;0.00;;;28.80;53.10;;;;;;5054446;28;20184;-72
2023/07/20 09:22:29;;;;;;;0.00;0.00;;;28.70;53.70;;;;;;5054076;28;20180;-72
2023/07/20 09:24:55;;;;;;;0.00;0.00;;;28.40;54.10;;;;;;5054335;28;20178;-72
2023/07/20 09:27:20;;;;;;;0.00;0.00;;;28.20;53.60;;;;;;5054224;28;20184;-72
2023/07/20 09:29:50;;;;;;;0.00;0.00;;;28.60;54.10;;;;;;5054031;28;20225;-72
2023/07/20 09:32:23;;;;;;;0.00;0.00;;;28.50;54.20;;;;;;5054204;28;20185;-71
2023/07/20 09:34:51;;;;;;;0.00;0.00;;;28.60;54.50;;;;;;5054017;28;20205;-70
2023/07/20 09:37:23;;;;;;;0.00;0.00;;;28.70;53.60;;;;;;5054109;28;20641;-71
2023/07/20 09:39:52;;;;;;;0.00;0.00;;;28.90;53.50;;;;;;5054093;28;20546;-71
2023/07/20 09:42:18;;;;;;;0.00;0.00;;;29.30;53.30;;;;;;5053984;28;20264;-72
2023/07/20 09:44:44;;;;;;;0.00;0.00;;;29.10;52.80;;;;;;5053828;28;20188;-71
2023/07/20 09:47:10;;;;;;;0.00;0.00;;;29.10;54.00;;;;;;5053918;28;20531;-72
2023/07/20 09:49:42;;;;;;;0.00;0.00;;;29.10;54.00;;;;;;5053841;28;20173;-71
2023/07/20 09:52:11;;;;;;;0.00;0.00;;;29.00;51.20;;;;;;5053894;28;20178;-71
2023/07/20 09:54:38;;;;;;;0.00;0.00;;;28.80;51.80;;;;;;5053648;28;20700;-72
2023/07/20 09:57:07;;;;;;;0.00;0.00;;;28.90;53.20;;;;;;5052329;28;20239;-71
2023/07/20 09:59:32;;;;;;;0.00;0.00;;;29.10;53.20;;;;;;5053711;28;20181;-72
2023/07/20 10:02:01;;;;;;;0.00;0.00;;;29.20;52.70;;;;;;5053605;28;20261;-72
2023/07/20 10:04:28;;;;;;;0.00;0.00;;;29.50;52.70;;;;;;5053329;28;20699;-72
2023/07/20 10:06:56;;;;;;;0.00;0.00;;;29.50;51.70;;;;;;5053571;28;20641;-72
2023/07/20 10:09:24;;;;;;;0.00;0.00;;;29.60;51.70;;;;;;5053552;28;20647;-72
2023/07/20 10:11:50;;;;;;;0.00;0.00;;;29.60;51.40;;;;;;5053541;28;20184;-72
2023/07/20 10:14:20;;;;;;;0.00;0.00;;;29.80;50.50;;;;;;5053306;28;20205;-72
2023/07/20 10:16:57;;;;;;;0.00;0.00;;;30.00;49.80;;;;;;5053384;28;20223;-72
2023/07/20 10:19:28;;;;;;;0.00;0.00;;;29.90;50.90;;;;;;5053189;28;20181;-73
2023/07/20 10:22:03;;;;;;;0.00;0.00;;;30.10;51.40;;;;;;5053002;28;20173;-72
2023/07/20 10:24:31;;;;;;;0.00;0.00;;;29.90;51.40;;;;;;5033325;28;20860;-72
2023/07/20 10:26:58;;;;;;;0.00;0.00;;;29.70;51.70;;;;;;5033186;28;20166;-72
2023/07/20 10:29:24;;;;;;;0.00;0.00;;;29.70;51.90;;;;;;5032844;28;20229;-72
2023/07/20 10:31:50;;;;;;;0.00;0.00;;;29.90;53.20;;;;;;5033291;28;20296;-72
2023/07/20 10:34:16;;;;;;;0.00;0.00;;;30.40;52.20;;;;;;5031768;28;20300;-72
2023/07/20 10:36:50;;;;;;;0.00;0.00;;;30.70;52.50;;;;;;5032082;28;20647;-73
2023/07/20 10:39:27;;;;;;;0.00;0.00;;;30.90;50.30;;;;;;5032975;28;20239;-72
2023/07/20 10:42:13;;;;;;;0.00;0.00;;;31.30;50.60;;;;;;5033061;28;20177;-72
2023/07/20 10:44:42;;;;;;;0.00;0.00;;;31.20;49.20;;;;;;5051676;28;20201;-72
2023/07/20 10:47:12;;;;;;;0.00;0.00;;;30.60;50.70;;;;;;5052792;28;20280;-70
2023/07/20 10:49:58;;;;;;;0.00;0.00;;;30.10;50.60;;;;;;5052736;28;20184;-72
2023/07/20 10:52:23;;;;;;;0.00;0.00;;;29.60;51.90;;;;;;5052554;28;20264;-72
2023/07/20 10:54:49;;;;;;;0.00;0.00;;;29.40;51.70;;;;;;5052511;28;20299;-72
2023/07/20 10:57:29;;;;;;;0.00;0.00;;;29.50;51.90;;;;;;5052566;28;20174;-71
2023/07/20 11:00:12;;;;;;;0.00;0.00;;;29.90;51.50;;;;;;5052650;28;20204;-72
2023/07/20 11:02:49;;;;;;;0.00;0.00;;;30.10;50.60;;;;;;5052486;28;20177;-72
2023/07/20 11:05:39;;;;;;;0.00;0.00;;;30.10;47.30;;;;;;5052414;28;20545;-72
2023/07/20 11:08:26;;;;;;;0.00;0.00;;;30.40;47.30;;;;;;5049364;28;20189;-72
2023/07/20 11:11:28;;;;;;;0.00;0.00;;;30.80;47.00;;;;;;5052124;28;20538;-71
2023/07/20 11:13:56;;;;;;;0.00;0.00;;;31.30;48.40;;;;;;5052368;28;20208;-72
2023/07/20 11:16:42;;;;;;;0.00;0.00;;;31.50;45.20;;;;;;5052210;28;20209;-71
2023/07/20 11:19:16;;;;;;;0.00;0.00;;;31.60;45.30;;;;;;5052239;28;20181;-70
2023/07/20 11:21:43;;;;;;;0.00;0.00;;;31.30;45.60;;;;;;5052265;28;20250;-72
2023/07/20 11:24:10;;;;;;;0.00;0.00;;;31.10;45.20;;;;;;5051998;28;20274;-72
2023/07/20 11:27:02;;;;;;;0.00;0.00;;;31.10;44.40;;;;;;5052175;28;20181;-72
2023/07/20 11:29:27;;;;;;;0.00;0.00;;;31.00;46.10;;;;;;5050690;28;20233;-72
2023/07/20 11:31:53;;;;;;;0.00;0.00;;;30.90;45.90;;;;;;5052097;28;20551;-72
2023/07/20 11:34:21;;;;;;;0.00;0.00;;;31.10;44.60;;;;;;5051149;28;20263;-72
2023/07/20 11:36:48;;;;;;;0.00;0.00;;;31.20;44.30;;;;;;5051752;28;20173;-72
2023/07/20 11:39:15;;;;;;;0.00;0.00;;;31.40;44.40;;;;;;5050586;28;20728;-73
2023/07/20 11:41:50;;;;;;;0.00;0.00;;;31.10;45.00;;;;;;5051811;28;20169;-72
2023/07/20 11:44:26;;;;;;;0.00;0.00;;;30.50;44.60;;;;;;5051638;28;20216;-71
2023/07/20 11:47:10;;;;;;;0.00;0.00;;;30.10;45.00;;;;;;5051764;28;20173;-72
2023/07/20 11:49:37;;;;;;;0.00;0.00;;;29.60;45.80;;;;;;5051540;28;20648;-72
2023/07/20 11:52:05;;;;;;;0.00;0.00;;;29.40;46.70;;;;;;5051591;28;20216;-72
2023/07/20 11:54:31;;;;;;;0.03;0.03;;;29.50;47.30;;;;;;5051436;28;20209;-72
2023/07/20 11:57:00;;;;;;;0.00;0.00;;;29.70;45.90;;;;;;5051588;28;20204;-72
2023/07/20 11:59:25;;;;;;;0.00;0.00;;;29.90;45.30;;;;;;5051232;28;20180;-72
2023/07/20 12:01:52;;;;;;;0.00;0.00;;;30.20;46.00;;;;;;5051579;28;20166;-73
2023/07/20 12:04:18;;;;;;;0.00;0.00;;;30.60;45.00;;;;;;5051460;28;20181;-72
2023/07/20 12:06:46;;;;;;;0.15;0.15;;;30.20;44.40;;;;;;5051435;28;20177;-72
2023/07/20 12:09:15;;;;;;;0.00;0.00;;;30.00;44.10;;;;;;5051537;28;20219;-72
2023/07/20 12:11:43;;;;;;;0.00;0.00;;;29.90;45.30;;;;;;5051571;28;20272;-73
2023/07/20 12:14:09;;;;;;;0.00;0.00;;;30.00;45.10;;;;;;5051119;28;20213;-71
2023/07/20 12:16:37;;;;;;;0.00;0.00;;;30.10;46.60;;;;;;5051320;28;20231;-73
2023/07/20 12:19:04;;;;;;;0.00;0.00;;;30.40;46.70;;;;;;5051283;28;20173;-73
2023/07/20 12:21:31;;;;;;;0.00;0.00;;;30.60;45.80;;;;;;5050383;28;20209;-72
2023/07/20 12:23:58;;;;;;;0.00;0.00;;;30.60;45.80;;;;;;5051566;28;20187;-73
2023/07/20 12:26:25;;;;;;;0.00;0.00;;;30.60;45.40;;;;;;5050921;28;20204;-73
2023/07/20 12:28:51;;;;;;;0.00;0.00;;;30.40;44.50;;;;;;5051168;28;20300;-73
2023/07/20 12:31:16;;;;;;;0.00;0.00;;;30.10;44.90;;;;;;5051522;28;20192;-72
2023/07/20 12:33:42;;;;;;;0.00;0.00;;;30.20;45.60;;;;;;5051542;28;20684;-73
2023/07/20 12:36:08;;;;;;;0.05;0.05;;;30.40;44.50;;;;;;5051498;28;20633;-72
2023/07/20 12:38:34;;;;;;;0.00;0.00;;;30.20;44.40;;;;;;5051416;28;20193;-73
2023/07/20 12:41:03;;;;;;;0.00;0.00;;;30.40;43.70;;;;;;5051491;28;20173;-73
2023/07/20 12:43:29;;;;;;;0.00;0.00;;;30.60;44.10;;;;;;5051392;28;20220;-73
2023/07/20 12:45:56;;;;;;;0.00;0.00;;;30.60;44.10;;;;;;5053432;28;20580;-74
2023/07/20 12:48:22;;;;;;;0.00;0.00;;;30.50;44.60;;;;;;5055639;28;20197;-73